sensor_id;sensor_type;location;lat;lon;timestamp;temperature;humidity
63051;SHT30;49136;47.416;19.402;2022-10-26T00:00:25;6.68;98.43
63051;SHT30;49136;47.416;19.402;2022-10-26T00:02:53;6.58;98.42
63051;SHT30;49136;47.416;19.402;2022-10-26T00:05:19;6.60;98.41
63051;SHT30;49136;47.416;19.402;2022-10-26T00:07:44;6.63;98.50
63051;SHT30;49136;47.416;19.402;2022-10-26T00:10:10;6.58;98.48
63051;SHT30;49136;47.416;19.402;2022-10-26T00:12:35;6.68;98.50
63051;SHT30;49136;47.416;19.402;2022-10-26T00:15:00;6.61;98.51
63051;SHT30;49136;47.416;19.402;2022-10-26T00:17:26;6.54;98.52
63051;SHT30;49136;47.416;19.402;2022-10-26T00:19:51;6.53;98.53
63051;SHT30;49136;47.416;19.402;2022-10-26T00:22:16;6.53;98.53
63051;SHT30;49136;47.416;19.402;2022-10-26T00:24:42;6.61;98.50
63051;SHT30;49136;47.416;19.402;2022-10-26T00:27:07;6.58;98.55
63051;SHT30;49136;47.416;19.402;2022-10-26T00:29:33;6.67;98.58
63051;SHT30;49136;47.416;19.402;2022-10-26T00:31:58;6.63;98.58
63051;SHT30;49136;47.416;19.402;2022-10-26T00:34:23;6.60;98.58
63051;SHT30;49136;47.416;19.402;2022-10-26T00:36:49;6.54;98.61
63051;SHT30;49136;47.416;19.402;2022-10-26T00:39:14;6.47;98.58
63051;SHT30;49136;47.416;19.402;2022-10-26T00:41:40;6.40;98.52
63051;SHT30;49136;47.416;19.402;2022-10-26T00:47:16;6.28;98.48
63051;SHT30;49136;47.416;19.402;2022-10-26T00:49:46;6.23;98.50
63051;SHT30;49136;47.416;19.402;2022-10-26T00:52:13;6.16;98.48
63051;SHT30;49136;47.416;19.402;2022-10-26T00:54:39;6.14;98.47
63051;SHT30;49136;47.416;19.402;2022-10-26T00:57:05;6.14;98.44
63051;SHT30;49136;47.416;19.402;2022-10-26T00:59:31;6.34;98.51
63051;SHT30;49136;47.416;19.402;2022-10-26T01:01:56;6.33;98.56
63051;SHT30;49136;47.416;19.402;2022-10-26T01:04:22;6.28;98.58
63051;SHT30;49136;47.416;19.402;2022-10-26T01:06:48;6.23;98.60
63051;SHT30;49136;47.416;19.402;2022-10-26T01:09:14;6.18;98.60
63051;SHT30;49136;47.416;19.402;2022-10-26T01:11:41;6.14;98.59
63051;SHT30;49136;47.416;19.402;2022-10-26T01:14:09;6.12;98.61
63051;SHT30;49136;47.416;19.402;2022-10-26T01:27:46;5.99;98.58
63051;SHT30;49136;47.416;19.402;2022-10-26T01:30:40;5.97;98.58
63051;SHT30;49136;47.416;19.402;2022-10-26T01:33:34;5.93;98.58
63051;SHT30;49136;47.416;19.402;2022-10-26T01:36:12;5.84;98.60
63051;SHT30;49136;47.416;19.402;2022-10-26T01:38:51;6.05;98.55
63051;SHT30;49136;47.416;19.402;2022-10-26T01:41:26;5.99;98.60
63051;SHT30;49136;47.416;19.402;2022-10-26T01:43:59;5.99;98.60
63051;SHT30;49136;47.416;19.402;2022-10-26T01:46:28;6.23;98.62
63051;SHT30;49136;47.416;19.402;2022-10-26T01:48:58;6.02;98.62
63051;SHT30;49136;47.416;19.402;2022-10-26T01:51:26;5.95;98.62
63051;SHT30;49136;47.416;19.402;2022-10-26T01:53:52;5.94;98.62
63051;SHT30;49136;47.416;19.402;2022-10-26T01:56:20;5.84;98.65
63051;SHT30;49136;47.416;19.402;2022-10-26T02:04:51;5.75;98.64
63051;SHT30;49136;47.416;19.402;2022-10-26T02:07:33;5.77;98.63
63051;SHT30;49136;47.416;19.402;2022-10-26T02:15:37;5.66;98.62
63051;SHT30;49136;47.416;19.402;2022-10-26T02:21:28;5.56;98.56
63051;SHT30;49136;47.416;19.402;2022-10-26T02:23:55;5.56;98.58
63051;SHT30;49136;47.416;19.402;2022-10-26T02:26:24;5.64;98.60
63051;SHT30;49136;47.416;19.402;2022-10-26T02:28:54;5.57;98.61
63051;SHT30;49136;47.416;19.402;2022-10-26T02:31:20;5.53;98.58
63051;SHT30;49136;47.416;19.402;2022-10-26T02:33:48;5.54;98.61
63051;SHT30;49136;47.416;19.402;2022-10-26T02:36:23;5.53;98.62
63051;SHT30;49136;47.416;19.402;2022-10-26T02:38:51;5.50;98.64
63051;SHT30;49136;47.416;19.402;2022-10-26T02:41:19;5.52;98.65
63051;SHT30;49136;47.416;19.402;2022-10-26T02:46:37;5.50;98.60
63051;SHT30;49136;47.416;19.402;2022-10-26T02:49:03;5.49;98.60
63051;SHT30;49136;47.416;19.402;2022-10-26T02:51:37;5.45;98.60
63051;SHT30;49136;47.416;19.402;2022-10-26T02:54:06;5.46;98.58
63051;SHT30;49136;47.416;19.402;2022-10-26T02:56:49;5.42;98.56
63051;SHT30;49136;47.416;19.402;2022-10-26T02:59:18;5.35;98.57
63051;SHT30;49136;47.416;19.402;2022-10-26T03:01:44;5.36;98.60
63051;SHT30;49136;47.416;19.402;2022-10-26T03:04:10;5.42;98.60
63051;SHT30;49136;47.416;19.402;2022-10-26T03:06:36;5.38;98.59
63051;SHT30;49136;47.416;19.402;2022-10-26T03:09:01;5.40;98.64
63051;SHT30;49136;47.416;19.402;2022-10-26T03:11:27;5.34;98.60
63051;SHT30;49136;47.416;19.402;2022-10-26T03:13:52;5.39;98.64
63051;SHT30;49136;47.416;19.402;2022-10-26T03:16:17;5.35;98.66
63051;SHT30;49136;47.416;19.402;2022-10-26T03:18:43;5.52;98.68
63051;SHT30;49136;47.416;19.402;2022-10-26T03:21:08;5.45;98.70
63051;SHT30;49136;47.416;19.402;2022-10-26T03:23:33;5.49;98.72
63051;SHT30;49136;47.416;19.402;2022-10-26T03:25:59;5.49;98.71
63051;SHT30;49136;47.416;19.402;2022-10-26T03:28:25;5.43;98.70
63051;SHT30;49136;47.416;19.402;2022-10-26T03:30:50;5.40;98.72
63051;SHT30;49136;47.416;19.402;2022-10-26T03:33:16;5.35;98.68
63051;SHT30;49136;47.416;19.402;2022-10-26T03:35:41;5.34;98.69
63051;SHT30;49136;47.416;19.402;2022-10-26T03:38:07;5.31;98.71
63051;SHT30;49136;47.416;19.402;2022-10-26T03:40:32;5.25;98.67
63051;SHT30;49136;47.416;19.402;2022-10-26T03:42:59;5.24;98.66
63051;SHT30;49136;47.416;19.402;2022-10-26T03:45:24;5.24;98.68
63051;SHT30;49136;47.416;19.402;2022-10-26T03:47:49;5.21;98.67
63051;SHT30;49136;47.416;19.402;2022-10-26T03:50:18;5.25;98.66
63051;SHT30;49136;47.416;19.402;2022-10-26T03:52:45;5.21;98.69
63051;SHT30;49136;47.416;19.402;2022-10-26T03:55:10;5.17;98.68
63051;SHT30;49136;47.416;19.402;2022-10-26T03:57:43;5.24;98.69
63051;SHT30;49136;47.416;19.402;2022-10-26T04:00:11;5.21;98.70
63051;SHT30;49136;47.416;19.402;2022-10-26T04:02:36;5.18;98.68
63051;SHT30;49136;47.416;19.402;2022-10-26T04:05:02;5.15;98.70
63051;SHT30;49136;47.416;19.402;2022-10-26T04:07:28;5.12;98.68
63051;SHT30;49136;47.416;19.402;2022-10-26T04:09:53;5.12;98.74
63051;SHT30;49136;47.416;19.402;2022-10-26T04:12:18;5.12;98.68
63051;SHT30;49136;47.416;19.402;2022-10-26T04:14:44;5.10;98.70
63051;SHT30;49136;47.416;19.402;2022-10-26T04:17:09;5.15;98.66
63051;SHT30;49136;47.416;19.402;2022-10-26T04:19:35;5.31;98.69
63051;SHT30;49136;47.416;19.402;2022-10-26T04:22:00;5.45;98.71
63051;SHT30;49136;47.416;19.402;2022-10-26T04:24:25;5.39;98.75
63051;SHT30;49136;47.416;19.402;2022-10-26T04:26:51;5.34;98.71
63051;SHT30;49136;47.416;19.402;2022-10-26T04:29:16;5.24;98.74
63051;SHT30;49136;47.416;19.402;2022-10-26T04:31:41;5.22;98.71
63051;SHT30;49136;47.416;19.402;2022-10-26T04:34:07;5.19;98.71
63051;SHT30;49136;47.416;19.402;2022-10-26T04:36:32;5.15;98.70
63051;SHT30;49136;47.416;19.402;2022-10-26T04:38:59;5.12;98.70
63051;SHT30;49136;47.416;19.402;2022-10-26T04:41:24;5.15;98.68
63051;SHT30;49136;47.416;19.402;2022-10-26T04:43:50;5.15;98.68
63051;SHT30;49136;47.416;19.402;2022-10-26T04:46:15;5.15;98.70
63051;SHT30;49136;47.416;19.402;2022-10-26T04:48:40;5.17;98.76
63051;SHT30;49136;47.416;19.402;2022-10-26T04:51:06;5.18;98.75
63051;SHT30;49136;47.416;19.402;2022-10-26T04:53:31;5.14;98.74
63051;SHT30;49136;47.416;19.402;2022-10-26T04:55:59;5.24;98.79
63051;SHT30;49136;47.416;19.402;2022-10-26T04:58:25;5.28;98.78
63051;SHT30;49136;47.416;19.402;2022-10-26T05:00:51;5.27;98.80
63051;SHT30;49136;47.416;19.402;2022-10-26T05:03:16;5.21;98.82
63051;SHT30;49136;47.416;19.402;2022-10-26T05:05:42;5.15;98.78
63051;SHT30;49136;47.416;19.402;2022-10-26T05:08:07;5.14;98.80
63051;SHT30;49136;47.416;19.402;2022-10-26T05:10:33;5.10;98.78
63051;SHT30;49136;47.416;19.402;2022-10-26T05:12:59;5.10;98.73
63051;SHT30;49136;47.416;19.402;2022-10-26T05:15:25;5.12;98.78
63051;SHT30;49136;47.416;19.402;2022-10-26T05:17:59;5.17;98.80
63051;SHT30;49136;47.416;19.402;2022-10-26T05:20:25;5.25;98.74
63051;SHT30;49136;47.416;19.402;2022-10-26T05:23:00;5.27;98.80
63051;SHT30;49136;47.416;19.402;2022-10-26T05:25:27;5.34;98.80
63051;SHT30;49136;47.416;19.402;2022-10-26T05:27:57;5.36;98.90
63051;SHT30;49136;47.416;19.402;2022-10-26T05:30:23;5.36;98.86
63051;SHT30;49136;47.416;19.402;2022-10-26T05:32:59;5.36;98.88
63051;SHT30;49136;47.416;19.402;2022-10-26T05:35:26;5.38;98.83
63051;SHT30;49136;47.416;19.402;2022-10-26T05:37:52;5.39;98.82
63051;SHT30;49136;47.416;19.402;2022-10-26T05:40:18;5.35;98.79
63051;SHT30;49136;47.416;19.402;2022-10-26T05:42:44;5.38;98.77
63051;SHT30;49136;47.416;19.402;2022-10-26T05:45:10;5.40;98.78
63051;SHT30;49136;47.416;19.402;2022-10-26T05:47:40;5.46;98.76
63051;SHT30;49136;47.416;19.402;2022-10-26T05:50:06;5.45;98.70
63051;SHT30;49136;47.416;19.402;2022-10-26T05:52:42;5.50;98.72
63051;SHT30;49136;47.416;19.402;2022-10-26T05:55:10;5.60;98.71
63051;SHT30;49136;47.416;19.402;2022-10-26T05:57:36;5.63;98.71
63051;SHT30;49136;47.416;19.402;2022-10-26T06:00:25;5.69;98.69
63051;SHT30;49136;47.416;19.402;2022-10-26T06:05:54;5.80;98.64
63051;SHT30;49136;47.416;19.402;2022-10-26T06:08:22;5.95;98.62
63051;SHT30;49136;47.416;19.402;2022-10-26T06:10:48;6.09;98.66
63051;SHT30;49136;47.416;19.402;2022-10-26T06:13:14;6.29;98.70
63051;SHT30;49136;47.416;19.402;2022-10-26T06:15:50;6.44;98.69
63051;SHT30;49136;47.416;19.402;2022-10-26T06:32:14;7.83;98.66
63051;SHT30;49136;47.416;19.402;2022-10-26T06:34:45;7.94;98.59
63051;SHT30;49136;47.416;19.402;2022-10-26T06:37:12;8.06;98.51
63051;SHT30;49136;47.416;19.402;2022-10-26T06:39:42;8.14;98.42
63051;SHT30;49136;47.416;19.402;2022-10-26T06:42:10;8.35;98.37
63051;SHT30;49136;47.416;19.402;2022-10-26T06:44:36;8.63;98.43
63051;SHT30;49136;47.416;19.402;2022-10-26T06:47:06;8.91;98.46
63051;SHT30;49136;47.416;19.402;2022-10-26T06:52:19;9.15;98.30
63051;SHT30;49136;47.416;19.402;2022-10-26T06:57:13;9.50;98.21
63051;SHT30;49136;47.416;19.402;2022-10-26T06:59:50;9.72;98.17
63051;SHT30;49136;47.416;19.402;2022-10-26T07:02:16;9.90;98.19
63051;SHT30;49136;47.416;19.402;2022-10-26T07:04:42;10.09;98.11
63051;SHT30;49136;47.416;19.402;2022-10-26T07:07:11;10.31;98.06
63051;SHT30;49136;47.416;19.402;2022-10-26T07:09:36;10.49;97.88
63051;SHT30;49136;47.416;19.402;2022-10-26T07:12:02;10.70;97.76
63051;SHT30;49136;47.416;19.402;2022-10-26T07:14:27;10.83;97.70
63051;SHT30;49136;47.416;19.402;2022-10-26T07:16:52;10.98;97.69
63051;SHT30;49136;47.416;19.402;2022-10-26T07:19:18;11.16;97.67
63051;SHT30;49136;47.416;19.402;2022-10-26T07:21:44;11.33;97.61
63051;SHT30;49136;47.416;19.402;2022-10-26T07:24:09;11.54;97.56
63051;SHT30;49136;47.416;19.402;2022-10-26T07:26:35;11.75;97.55
63051;SHT30;49136;47.416;19.402;2022-10-26T07:29:00;11.91;97.52
63051;SHT30;49136;47.416;19.402;2022-10-26T07:31:26;12.13;97.41
63051;SHT30;49136;47.416;19.402;2022-10-26T07:33:54;12.34;97.43
63051;SHT30;49136;47.416;19.402;2022-10-26T07:36:19;12.54;97.37
63051;SHT30;49136;47.416;19.402;2022-10-26T07:38:45;12.75;97.34
63051;SHT30;49136;47.416;19.402;2022-10-26T07:41:10;12.96;97.32
63051;SHT30;49136;47.416;19.402;2022-10-26T07:43:36;13.12;97.17
63051;SHT30;49136;47.416;19.402;2022-10-26T07:46:01;13.34;97.00
63051;SHT30;49136;47.416;19.402;2022-10-26T07:48:26;13.55;97.11
63051;SHT30;49136;47.416;19.402;2022-10-26T07:50:52;13.72;96.94
63051;SHT30;49136;47.416;19.402;2022-10-26T07:53:17;13.87;96.51
63051;SHT30;49136;47.416;19.402;2022-10-26T07:55:42;14.02;96.17
63051;SHT30;49136;47.416;19.402;2022-10-26T07:58:08;14.16;96.17
63051;SHT30;49136;47.416;19.402;2022-10-26T08:00:33;14.31;95.78
63051;SHT30;49136;47.416;19.402;2022-10-26T08:02:58;14.44;95.84
63051;SHT30;49136;47.416;19.402;2022-10-26T08:05:24;14.58;95.38
63051;SHT30;49136;47.416;19.402;2022-10-26T08:07:49;14.69;94.37
63051;SHT30;49136;47.416;19.402;2022-10-26T08:10:15;14.75;93.31
63051;SHT30;49136;47.416;19.402;2022-10-26T08:12:41;14.79;93.05
63051;SHT30;49136;47.416;19.402;2022-10-26T08:15:08;14.83;93.15
63051;SHT30;49136;47.416;19.402;2022-10-26T08:17:34;14.71;93.31
63051;SHT30;49136;47.416;19.402;2022-10-26T08:19:59;14.64;93.39
63051;SHT30;49136;47.416;19.402;2022-10-26T08:22:25;14.69;93.06
63051;SHT30;49136;47.416;19.402;2022-10-26T08:24:50;14.71;92.63
63051;SHT30;49136;47.416;19.402;2022-10-26T08:27:16;14.87;93.04
63051;SHT30;49136;47.416;19.402;2022-10-26T08:29:41;15.00;93.19
63051;SHT30;49136;47.416;19.402;2022-10-26T08:32:08;15.14;92.68
63051;SHT30;49136;47.416;19.402;2022-10-26T08:34:33;15.25;91.57
63051;SHT30;49136;47.416;19.402;2022-10-26T08:36:59;15.41;91.57
63051;SHT30;49136;47.416;19.402;2022-10-26T08:39:24;15.58;91.12
63051;SHT30;49136;47.416;19.402;2022-10-26T08:41:57;15.82;90.60
63051;SHT30;49136;47.416;19.402;2022-10-26T08:44:37;15.83;90.45
63051;SHT30;49136;47.416;19.402;2022-10-26T08:47:20;16.01;90.24
63051;SHT30;49136;47.416;19.402;2022-10-26T08:52:42;16.18;90.73
63051;SHT30;49136;47.416;19.402;2022-10-26T08:55:15;16.10;89.89
63051;SHT30;49136;47.416;19.402;2022-10-26T08:57:43;16.18;90.48
63051;SHT30;49136;47.416;19.402;2022-10-26T09:00:19;16.28;90.71
63051;SHT30;49136;47.416;19.402;2022-10-26T09:02:51;16.55;90.21
63051;SHT30;49136;47.416;19.402;2022-10-26T09:05:21;16.67;90.20
63051;SHT30;49136;47.416;19.402;2022-10-26T09:08:08;16.70;89.67
63051;SHT30;49136;47.416;19.402;2022-10-26T09:10:58;16.92;89.85
63051;SHT30;49136;47.416;19.402;2022-10-26T09:16:29;17.42;87.79
63051;SHT30;49136;47.416;19.402;2022-10-26T09:21:40;17.59;86.76
63051;SHT30;49136;47.416;19.402;2022-10-26T09:29:06;17.73;85.96
63051;SHT30;49136;47.416;19.402;2022-10-26T09:31:40;17.88;85.87
63051;SHT30;49136;47.416;19.402;2022-10-26T09:34:06;17.78;85.33
63051;SHT30;49136;47.416;19.402;2022-10-26T09:36:35;17.89;85.51
63051;SHT30;49136;47.416;19.402;2022-10-26T09:39:19;17.96;84.45
63051;SHT30;49136;47.416;19.402;2022-10-26T09:42:50;18.02;85.04
63051;SHT30;49136;47.416;19.402;2022-10-26T09:45:15;18.02;84.97
63051;SHT30;49136;47.416;19.402;2022-10-26T09:47:46;18.13;85.09
63051;SHT30;49136;47.416;19.402;2022-10-26T09:52:42;18.20;83.96
63051;SHT30;49136;47.416;19.402;2022-10-26T09:55:11;18.30;84.10
63051;SHT30;49136;47.416;19.402;2022-10-26T09:57:39;18.25;83.18
63051;SHT30;49136;47.416;19.402;2022-10-26T10:00:10;18.33;83.57
63051;SHT30;49136;47.416;19.402;2022-10-26T10:02:38;18.46;83.35
63051;SHT30;49136;47.416;19.402;2022-10-26T10:05:29;18.63;83.15
63051;SHT30;49136;47.416;19.402;2022-10-26T10:08:15;18.74;82.97
63051;SHT30;49136;47.416;19.402;2022-10-26T10:11:04;18.82;82.50
63051;SHT30;49136;47.416;19.402;2022-10-26T10:13:32;18.67;82.36
63051;SHT30;49136;47.416;19.402;2022-10-26T10:16:03;18.78;82.67
63051;SHT30;49136;47.416;19.402;2022-10-26T10:18:29;18.63;82.83
63051;SHT30;49136;47.416;19.402;2022-10-26T10:20:56;18.50;83.56
63051;SHT30;49136;47.416;19.402;2022-10-26T10:23:28;18.32;83.35
63051;SHT30;49136;47.416;19.402;2022-10-26T10:26:05;18.36;84.16
63051;SHT30;49136;47.416;19.402;2022-10-26T10:28:32;18.19;83.65
63051;SHT30;49136;47.416;19.402;2022-10-26T10:31:00;18.23;84.64
63051;SHT30;49136;47.416;19.402;2022-10-26T10:33:38;18.25;84.58
63051;SHT30;49136;47.416;19.402;2022-10-26T10:36:07;18.36;83.84
63051;SHT30;49136;47.416;19.402;2022-10-26T10:38:39;18.48;83.62
63051;SHT30;49136;47.416;19.402;2022-10-26T10:41:04;18.55;83.48
63051;SHT30;49136;47.416;19.402;2022-10-26T10:43:30;18.69;83.02
63051;SHT30;49136;47.416;19.402;2022-10-26T10:45:57;18.87;83.05
63051;SHT30;49136;47.416;19.402;2022-10-26T10:48:27;18.99;82.73
63051;SHT30;49136;47.416;19.402;2022-10-26T10:51:02;19.03;81.87
63051;SHT30;49136;47.416;19.402;2022-10-26T11:01:20;19.06;82.09
63051;SHT30;49136;47.416;19.402;2022-10-26T11:04:01;19.06;82.52
63051;SHT30;49136;47.416;19.402;2022-10-26T11:06:35;18.99;80.73
63051;SHT30;49136;47.416;19.402;2022-10-26T11:09:09;19.27;81.71
63051;SHT30;49136;47.416;19.402;2022-10-26T11:11:37;19.54;80.86
63051;SHT30;49136;47.416;19.402;2022-10-26T11:16:47;19.96;78.99
63051;SHT30;49136;47.416;19.402;2022-10-26T11:19:29;19.93;79.02
63051;SHT30;49136;47.416;19.402;2022-10-26T11:21:55;19.96;79.29
63051;SHT30;49136;47.416;19.402;2022-10-26T11:24:40;20.24;79.28
63051;SHT30;49136;47.416;19.402;2022-10-26T11:27:22;20.27;79.06
63051;SHT30;49136;47.416;19.402;2022-10-26T11:30:19;20.16;75.94
63051;SHT30;49136;47.416;19.402;2022-10-26T11:33:10;19.86;76.73
63051;SHT30;49136;47.416;19.402;2022-10-26T11:38:42;19.24;78.43
63051;SHT30;49136;47.416;19.402;2022-10-26T11:41:20;19.17;79.08
63051;SHT30;49136;47.416;19.402;2022-10-26T11:44:08;18.85;78.89
63051;SHT30;49136;47.416;19.402;2022-10-26T11:46:40;18.88;80.16
63051;SHT30;49136;47.416;19.402;2022-10-26T11:49:17;18.85;80.17
63051;SHT30;49136;47.416;19.402;2022-10-26T11:54:41;18.82;81.27
63051;SHT30;49136;47.416;19.402;2022-10-26T11:57:10;18.92;80.50
63051;SHT30;49136;47.416;19.402;2022-10-26T11:59:42;18.91;80.43
63051;SHT30;49136;47.416;19.402;2022-10-26T12:02:39;18.75;80.54
63051;SHT30;49136;47.416;19.402;2022-10-26T12:07:39;18.76;80.98
63051;SHT30;49136;47.416;19.402;2022-10-26T12:10:35;18.68;81.62
63051;SHT30;49136;47.416;19.402;2022-10-26T12:13:18;18.51;81.58
63051;SHT30;49136;47.416;19.402;2022-10-26T12:15:59;18.36;82.32
63051;SHT30;49136;47.416;19.402;2022-10-26T12:18:40;18.28;83.00
63051;SHT30;49136;47.416;19.402;2022-10-26T12:21:08;18.23;82.92
63051;SHT30;49136;47.416;19.402;2022-10-26T12:23:37;18.15;83.15
63051;SHT30;49136;47.416;19.402;2022-10-26T12:39:37;17.96;83.12
63051;SHT30;49136;47.416;19.402;2022-10-26T12:42:27;17.89;84.59
63051;SHT30;49136;47.416;19.402;2022-10-26T12:57:49;18.36;83.55
63051;SHT30;49136;47.416;19.402;2022-10-26T13:00:24;18.32;83.39
63051;SHT30;49136;47.416;19.402;2022-10-26T13:03:15;18.30;83.37
63051;SHT30;49136;47.416;19.402;2022-10-26T13:08:41;18.50;82.95
63051;SHT30;49136;47.416;19.402;2022-10-26T13:11:17;18.68;83.57
63051;SHT30;49136;47.416;19.402;2022-10-26T13:13:51;18.92;82.27
63051;SHT30;49136;47.416;19.402;2022-10-26T13:16:18;18.95;82.58
63051;SHT30;49136;47.416;19.402;2022-10-26T13:18:44;18.79;81.07
63051;SHT30;49136;47.416;19.402;2022-10-26T13:21:15;18.72;82.66
63051;SHT30;49136;47.416;19.402;2022-10-26T13:24:10;18.68;83.09
63051;SHT30;49136;47.416;19.402;2022-10-26T13:29:30;18.44;82.97
63051;SHT30;49136;47.416;19.402;2022-10-26T13:31:56;18.50;82.98
63051;SHT30;49136;47.416;19.402;2022-10-26T13:34:27;18.48;83.60
63051;SHT30;49136;47.416;19.402;2022-10-26T13:37:17;18.30;82.84
63051;SHT30;49136;47.416;19.402;2022-10-26T13:39:46;18.47;84.55
63051;SHT30;49136;47.416;19.402;2022-10-26T13:42:17;18.44;84.25
63051;SHT30;49136;47.416;19.402;2022-10-26T13:44:49;18.32;83.67
63051;SHT30;49136;47.416;19.402;2022-10-26T13:50:13;18.25;84.50
63051;SHT30;49136;47.416;19.402;2022-10-26T13:52:45;18.20;84.99
63051;SHT30;49136;47.416;19.402;2022-10-26T13:55:30;18.12;85.22
63051;SHT30;49136;47.416;19.402;2022-10-26T14:03:29;17.84;87.00
63051;SHT30;49136;47.416;19.402;2022-10-26T14:05:55;17.75;86.83
63051;SHT30;49136;47.416;19.402;2022-10-26T14:08:20;17.61;87.43
63051;SHT30;49136;47.416;19.402;2022-10-26T14:10:52;17.50;88.13
63051;SHT30;49136;47.416;19.402;2022-10-26T14:13:18;17.35;89.30
63051;SHT30;49136;47.416;19.402;2022-10-26T14:15:46;17.26;89.74
63051;SHT30;49136;47.416;19.402;2022-10-26T14:18:30;17.18;89.51
63051;SHT30;49136;47.416;19.402;2022-10-26T14:21:01;17.12;89.91
63051;SHT30;49136;47.416;19.402;2022-10-26T14:23:48;17.10;90.04
63051;SHT30;49136;47.416;19.402;2022-10-26T14:26:28;17.01;90.12
63051;SHT30;49136;47.416;19.402;2022-10-26T14:28:58;17.00;90.32
63051;SHT30;49136;47.416;19.402;2022-10-26T14:31:26;16.95;90.44
63051;SHT30;49136;47.416;19.402;2022-10-26T14:33:53;16.85;90.85
63051;SHT30;49136;47.416;19.402;2022-10-26T14:36:22;16.77;91.07
63051;SHT30;49136;47.416;19.402;2022-10-26T14:38:54;16.67;91.27
63051;SHT30;49136;47.416;19.402;2022-10-26T14:41:22;16.60;91.75
63051;SHT30;49136;47.416;19.402;2022-10-26T14:43:48;16.52;92.18
63051;SHT30;49136;47.416;19.402;2022-10-26T14:46:15;16.42;92.45
63051;SHT30;49136;47.416;19.402;2022-10-26T14:48:52;16.36;92.64
63051;SHT30;49136;47.416;19.402;2022-10-26T14:51:20;16.33;92.61
63051;SHT30;49136;47.416;19.402;2022-10-26T14:53:55;16.28;92.91
63051;SHT30;49136;47.416;19.402;2022-10-26T15:02:14;16.22;92.85
63051;SHT30;49136;47.416;19.402;2022-10-26T15:04:56;16.21;92.86
63051;SHT30;49136;47.416;19.402;2022-10-26T15:07:22;16.17;92.95
63051;SHT30;49136;47.416;19.402;2022-10-26T15:09:48;16.12;93.17
63051;SHT30;49136;47.416;19.402;2022-10-26T15:14:49;15.98;93.36
63051;SHT30;49136;47.416;19.402;2022-10-26T15:17:21;15.98;93.26
63051;SHT30;49136;47.416;19.402;2022-10-26T15:19:49;15.91;93.00
63051;SHT30;49136;47.416;19.402;2022-10-26T15:22:25;15.86;93.14
63051;SHT30;49136;47.416;19.402;2022-10-26T15:24:54;15.83;92.80
63051;SHT30;49136;47.416;19.402;2022-10-26T15:27:21;15.76;93.31
63051;SHT30;49136;47.416;19.402;2022-10-26T15:29:49;15.69;93.55
63051;SHT30;49136;47.416;19.402;2022-10-26T15:32:19;15.60;93.76
63051;SHT30;49136;47.416;19.402;2022-10-26T15:37:31;15.49;93.60
63051;SHT30;49136;47.416;19.402;2022-10-26T15:39:58;15.43;93.83
63051;SHT30;49136;47.416;19.402;2022-10-26T15:42:24;15.39;93.90
63051;SHT30;49136;47.416;19.402;2022-10-26T15:44:51;15.34;94.11
63051;SHT30;49136;47.416;19.402;2022-10-26T15:47:17;15.36;94.16
63051;SHT30;49136;47.416;19.402;2022-10-26T15:49:46;15.36;93.81
63051;SHT30;49136;47.416;19.402;2022-10-26T15:52:12;15.32;94.22
63051;SHT30;49136;47.416;19.402;2022-10-26T15:54:37;15.27;94.11
63051;SHT30;49136;47.416;19.402;2022-10-26T15:57:03;15.20;94.20
63051;SHT30;49136;47.416;19.402;2022-10-26T15:59:28;15.14;94.32
63051;SHT30;49136;47.416;19.402;2022-10-26T16:01:54;15.06;94.49
63051;SHT30;49136;47.416;19.402;2022-10-26T16:04:19;14.97;94.63
63051;SHT30;49136;47.416;19.402;2022-10-26T16:06:45;14.91;94.63
63051;SHT30;49136;47.416;19.402;2022-10-26T16:09:15;14.84;94.76
63051;SHT30;49136;47.416;19.402;2022-10-26T16:11:42;14.83;94.86
63051;SHT30;49136;47.416;19.402;2022-10-26T16:14:11;14.75;94.89
63051;SHT30;49136;47.416;19.402;2022-10-26T16:16:37;14.72;95.00
63051;SHT30;49136;47.416;19.402;2022-10-26T16:19:03;14.66;95.06
63051;SHT30;49136;47.416;19.402;2022-10-26T16:21:28;14.64;95.15
63051;SHT30;49136;47.416;19.402;2022-10-26T16:23:54;14.58;95.27
63051;SHT30;49136;47.416;19.402;2022-10-26T16:26:22;14.51;95.24
63051;SHT30;49136;47.416;19.402;2022-10-26T16:28:48;14.48;95.38
63051;SHT30;49136;47.416;19.402;2022-10-26T16:31:16;14.48;95.49
63051;SHT30;49136;47.416;19.402;2022-10-26T16:33:41;14.42;95.51
63051;SHT30;49136;47.416;19.402;2022-10-26T16:36:08;14.35;95.57
63051;SHT30;49136;47.416;19.402;2022-10-26T16:38:34;14.32;95.51
63051;SHT30;49136;47.416;19.402;2022-10-26T16:43:30;14.24;95.65
63051;SHT30;49136;47.416;19.402;2022-10-26T16:45:57;14.21;95.60
63051;SHT30;49136;47.416;19.402;2022-10-26T16:48:22;14.18;95.59
63051;SHT30;49136;47.416;19.402;2022-10-26T16:50:47;14.21;95.66
63051;SHT30;49136;47.416;19.402;2022-10-26T16:53:13;14.18;95.83
63051;SHT30;49136;47.416;19.402;2022-10-26T16:55:38;14.14;95.78
63051;SHT30;49136;47.416;19.402;2022-10-26T16:58:04;14.12;95.88
63051;SHT30;49136;47.416;19.402;2022-10-26T17:00:29;14.07;95.82
63051;SHT30;49136;47.416;19.402;2022-10-26T17:02:55;14.06;95.86
63051;SHT30;49136;47.416;19.402;2022-10-26T17:05:20;14.05;95.93
63051;SHT30;49136;47.416;19.402;2022-10-26T17:07:46;14.06;95.93
63051;SHT30;49136;47.416;19.402;2022-10-26T17:10:11;14.05;95.97
63051;SHT30;49136;47.416;19.402;2022-10-26T17:12:37;14.03;95.96
63051;SHT30;49136;47.416;19.402;2022-10-26T17:15:02;14.06;96.00
63051;SHT30;49136;47.416;19.402;2022-10-26T17:17:28;14.02;95.95
63051;SHT30;49136;47.416;19.402;2022-10-26T17:19:53;13.96;96.02
63051;SHT30;49136;47.416;19.402;2022-10-26T17:22:18;13.96;96.02
63051;SHT30;49136;47.416;19.402;2022-10-26T17:24:44;13.93;96.06
63051;SHT30;49136;47.416;19.402;2022-10-26T17:27:10;13.90;95.98
63051;SHT30;49136;47.416;19.402;2022-10-26T17:29:35;13.86;95.98
63051;SHT30;49136;47.416;19.402;2022-10-26T17:32:00;13.87;95.98
63051;SHT30;49136;47.416;19.402;2022-10-26T17:34:26;13.80;96.04
63051;SHT30;49136;47.416;19.402;2022-10-26T17:36:51;13.82;96.02
63051;SHT30;49136;47.416;19.402;2022-10-26T17:39:16;13.80;96.06
63051;SHT30;49136;47.416;19.402;2022-10-26T17:41:43;13.80;96.10
63051;SHT30;49136;47.416;19.402;2022-10-26T17:44:09;13.79;96.10
63051;SHT30;49136;47.416;19.402;2022-10-26T17:46:34;13.76;96.05
63051;SHT30;49136;47.416;19.402;2022-10-26T17:49:00;13.72;96.09
63051;SHT30;49136;47.416;19.402;2022-10-26T17:51:27;13.72;96.19
63051;SHT30;49136;47.416;19.402;2022-10-26T17:53:53;13.69;96.06
63051;SHT30;49136;47.416;19.402;2022-10-26T17:56:21;13.69;96.12
63051;SHT30;49136;47.416;19.402;2022-10-26T17:58:51;13.69;96.12